Time;durP1;ratioP1;P1;durP2;ratioP2;P2;SDS_P1;SDS_P2;PMS_P1;PMS_P2;Temp;Humidity;BMP_temperature;BMP_pressure;BME280_temperature;BME280_humidity;BME280_pressure;Samples;Min_cycle;Max_cycle;Signal;HPM_P1;HPM_P2
2023/05/08 00:00:35;;;;;;;0.98;0.70;;;22.00;44.90;;;;;;4142952;28;20085;-61
2023/05/08 00:02:57;;;;;;;1.02;0.75;;;22.20;44.60;;;;;;4136162;28;20045;-63
2023/05/08 00:05:20;;;;;;;0.90;0.70;;;22.40;44.20;;;;;;4142976;28;20134;-61
2023/05/08 00:07:42;;;;;;;2.03;0.70;;;22.60;43.70;;;;;;4143435;28;20038;-61
2023/05/08 00:10:07;;;;;;;1.65;0.90;;;22.80;43.50;;;;;;4143432;28;20034;-62
2023/05/08 00:12:29;;;;;;;0.88;0.88;;;23.00;43.10;;;;;;4143867;28;20056;-63
2023/05/08 00:14:52;;;;;;;3.30;1.10;;;23.20;42.70;;;;;;4143340;28;20527;-60
2023/05/08 00:17:14;;;;;;;1.20;0.98;;;23.40;42.50;;;;;;4129357;28;20049;-62
2023/05/08 00:19:36;;;;;;;1.27;0.88;;;23.60;42.00;;;;;;4139314;28;20419;-58
2023/05/08 00:21:59;;;;;;;2.78;1.00;;;23.70;41.60;;;;;;4143644;28;20116;-60
2023/05/08 00:24:21;;;;;;;0.70;0.70;;;23.90;41.40;;;;;;4143640;28;20038;-59
2023/05/08 00:26:44;;;;;;;2.47;0.77;;;24.00;41.00;;;;;;4143692;28;20150;-57
2023/05/08 00:29:07;;;;;;;1.55;1.20;;;24.20;41.10;;;;;;4142862;28;20041;-61
2023/05/08 00:31:29;;;;;;;1.15;0.90;;;24.20;40.90;;;;;;4143554;28;20040;-60
2023/05/08 00:33:52;;;;;;;2.15;0.95;;;23.80;41.10;;;;;;4143448;28;20041;-63
2023/05/08 00:36:14;;;;;;;1.27;0.90;;;23.30;41.50;;;;;;4127443;28;20076;-58
2023/05/08 00:38:37;;;;;;;3.05;0.90;;;22.80;42.10;;;;;;4126495;28;20042;-57
2023/05/08 00:41:00;;;;;;;3.75;1.30;;;22.50;42.50;;;;;;4142017;28;20046;-60
2023/05/08 00:43:27;;;;;;;3.58;1.00;;;22.20;43.00;;;;;;4141559;28;20113;-63
2023/05/08 00:45:49;;;;;;;2.05;0.85;;;21.90;43.30;;;;;;4129320;28;20082;-64
2023/05/08 00:48:12;;;;;;;3.33;1.00;;;21.70;43.70;;;;;;4126070;28;20049;-66
2023/05/08 00:50:35;;;;;;;4.50;1.10;;;21.50;43.90;;;;;;4144136;28;20552;-59
2023/05/08 00:53:00;;;;;;;1.17;0.85;;;21.30;44.00;;;;;;4143226;28;20041;-59
2023/05/08 00:55:22;;;;;;;1.15;0.77;;;21.20;44.30;;;;;;4123761;28;20458;-60
2023/05/08 00:57:47;;;;;;;4.60;1.05;;;21.10;44.60;;;;;;4142668;28;20026;-59
2023/05/08 01:00:10;;;;;;;2.28;0.60;;;21.00;44.80;;;;;;4137553;28;20049;-59
2023/05/08 01:02:33;;;;;;;2.05;1.13;;;20.90;44.80;;;;;;4139611;28;20042;-58
2023/05/08 01:04:55;;;;;;;1.00;0.90;;;20.80;45.00;;;;;;4138288;28;20049;-59
2023/05/08 01:07:18;;;;;;;1.65;0.77;;;20.70;45.10;;;;;;4141598;28;20498;-58
2023/05/08 01:09:41;;;;;;;2.60;0.80;;;20.60;45.30;;;;;;4123172;28;20034;-60
2023/05/08 01:12:29;;;;;;;2.58;0.70;;;20.50;45.20;;;;;;4142017;28;20219;-57
2023/05/08 01:15:23;;;;;;;1.27;0.90;;;20.40;45.50;;;;;;4138946;28;20042;-60
2023/05/08 01:18:03;;;;;;;2.38;1.15;;;20.40;45.90;;;;;;4140842;28;20038;-61
2023/05/08 01:20:53;;;;;;;2.45;0.88;;;20.70;45.40;;;;;;4140825;28;20034;-59
2023/05/08 01:23:46;;;;;;;4.18;0.85;;;21.40;44.50;;;;;;4132951;28;20141;-59
2023/05/08 01:26:20;;;;;;;2.42;0.77;;;22.00;43.40;;;;;;4140400;28;20084;-58
2023/05/08 01:28:58;;;;;;;1.98;0.70;;;22.40;42.80;;;;;;4133632;28;20049;-58
2023/05/08 01:31:42;;;;;;;1.40;0.70;;;22.80;42.20;;;;;;4141482;28;20140;-60
2023/05/08 01:34:06;;;;;;;;;;;23.20;41.70;;;;;;4129321;28;20030;-60
2023/05/08 01:36:39;;;;;;;2.20;0.70;;;23.40;41.40;;;;;;4141441;28;19927;-58
2023/05/08 01:39:14;;;;;;;3.33;0.90;;;23.70;41.00;;;;;;4144383;28;20029;-58
2023/05/08 01:41:38;;;;;;;2.38;0.65;;;24.00;41.30;;;;;;4131217;28;20038;-59
2023/05/08 01:44:14;;;;;;;2.70;0.93;;;24.20;40.30;;;;;;4141080;28;20626;-59
2023/05/08 01:46:37;;;;;;;3.97;0.82;;;24.50;40.10;;;;;;4141898;28;20497;-59
2023/05/08 01:49:03;;;;;;;4.50;0.98;;;24.70;40.30;;;;;;4139466;28;20099;-54
2023/05/08 01:51:30;;;;;;;3.40;0.77;;;24.90;40.50;;;;;;4139408;28;20514;-54
2023/05/08 01:53:59;;;;;;;2.42;0.55;;;25.20;40.00;;;;;;4138989;28;20057;-49
2023/05/08 01:56:25;;;;;;;1.30;0.90;;;25.40;40.10;;;;;;4138700;28;20041;-53
2023/05/08 01:58:50;;;;;;;1.90;0.57;;;25.10;40.50;;;;;;4124192;28;20433;-58
2023/05/08 02:01:14;;;;;;;1.80;1.10;;;24.70;41.20;;;;;;4141815;28;20041;-55
2023/05/08 02:03:39;;;;;;;1.10;0.68;;;24.30;41.90;;;;;;4137295;28;20139;-56
2023/05/08 02:06:02;;;;;;;1.48;0.60;;;24.00;42.40;;;;;;4138921;28;20425;-56
2023/05/08 02:08:26;;;;;;;3.03;1.10;;;23.70;42.90;;;;;;4141217;28;20349;-48
2023/05/08 02:10:50;;;;;;;1.85;1.02;;;23.30;41.80;;;;;;4133348;28;20753;-51
2023/05/08 02:13:17;;;;;;;2.65;1.05;;;23.10;41.40;;;;;;4136396;28;20030;-55
2023/05/08 02:15:41;;;;;;;2.28;1.08;;;22.80;42.00;;;;;;4142662;28;20509;-56
2023/05/08 02:18:07;;;;;;;;;;;22.60;42.40;;;;;;4123236;28;20030;-55
2023/05/08 02:20:31;;;;;;;2.05;0.60;;;22.40;43.00;;;;;;4141083;28;19979;-53
2023/05/08 02:22:54;;;;;;;;;;;22.30;43.20;;;;;;4139230;28;20081;-54
2023/05/08 02:25:17;;;;;;;1.05;0.75;;;22.20;43.60;;;;;;4141733;28;20363;-53
2023/05/08 02:27:42;;;;;;;3.90;0.90;;;22.10;43.80;;;;;;4141912;28;20048;-52
2023/05/08 02:30:06;;;;;;;1.13;0.60;;;22.00;43.90;;;;;;4139350;28;20045;-57
2023/05/08 02:32:30;;;;;;;3.20;0.70;;;21.90;43.90;;;;;;4138507;28;20048;-57
2023/05/08 02:34:54;;;;;;;1.88;0.80;;;21.90;44.20;;;;;;4141341;28;20034;-52
2023/05/08 02:37:20;;;;;;;2.60;0.60;;;21.80;44.60;;;;;;4142681;28;20641;-62
2023/05/08 02:39:44;;;;;;;0.93;0.43;;;21.70;44.80;;;;;;4139072;28;20026;-48
2023/05/08 02:42:07;;;;;;;1.55;0.70;;;21.60;45.20;;;;;;4140727;28;20041;-59
2023/05/08 02:44:31;;;;;;;1.75;0.57;;;21.50;45.10;;;;;;4132125;28;20042;-59
2023/05/08 02:47:13;;;;;;;0.90;0.47;;;21.50;45.40;;;;;;4138782;28;20058;-49
2023/05/08 02:49:49;;;;;;;0.50;0.50;;;21.40;45.30;;;;;;4138442;28;20470;-59
2023/05/08 02:52:29;;;;;;;2.28;0.52;;;21.30;46.30;;;;;;4141698;28;20033;-58
2023/05/08 02:55:10;;;;;;;1.08;0.50;;;21.20;45.40;;;;;;4136546;28;20046;-58
2023/05/08 02:58:04;;;;;;;0.77;0.50;;;21.10;45.70;;;;;;4142202;28;20046;-55
2023/05/08 03:00:40;;;;;;;3.35;0.70;;;20.90;46.30;;;;;;4139562;28;20112;-57
2023/05/08 03:03:35;;;;;;;1.27;0.73;;;20.90;46.00;;;;;;4140804;28;20041;-59
2023/05/08 03:06:01;;;;;;;2.25;0.52;;;20.80;45.90;;;;;;4138617;28;20046;-57
2023/05/08 03:08:34;;;;;;;1.10;0.77;;;20.70;45.90;;;;;;4129033;28;20392;-59
2023/05/08 03:11:02;;;;;;;1.02;0.68;;;20.60;45.80;;;;;;4144629;28;20120;-58
2023/05/08 03:13:28;;;;;;;2.08;0.80;;;20.60;46.00;;;;;;4145401;28;20037;-56
2023/05/08 03:16:05;;;;;;;1.52;0.68;;;20.50;45.10;;;;;;4145665;28;20042;-58
2023/05/08 03:18:40;;;;;;;4.50;0.80;;;20.40;45.50;;;;;;4143457;28;20033;-53
2023/05/08 03:21:05;;;;;;;2.22;0.60;;;20.40;45.60;;;;;;4133746;28;20038;-59
2023/05/08 03:23:29;;;;;;;1.48;0.95;;;20.30;46.00;;;;;;4138595;28;20472;-58
2023/05/08 03:25:54;;;;;;;2.28;0.57;;;20.30;46.40;;;;;;4141462;28;20429;-59
2023/05/08 03:28:18;;;;;;;2.17;0.50;;;20.20;46.80;;;;;;4144755;28;20096;-55
2023/05/08 03:30:41;;;;;;;1.27;0.80;;;20.20;47.30;;;;;;4133959;28;20394;-49
2023/05/08 03:33:04;;;;;;;3.20;0.60;;;20.20;47.50;;;;;;4140621;28;20482;-57
2023/05/08 03:35:27;;;;;;;2.20;0.70;;;20.20;47.20;;;;;;4146004;28;20515;-60
2023/05/08 03:37:52;;;;;;;1.33;0.60;;;20.10;47.40;;;;;;4141899;28;20280;-59
2023/05/08 03:40:14;;;;;;;1.58;0.40;;;20.10;48.40;;;;;;4144762;28;20054;-58
2023/05/08 03:42:37;;;;;;;1.10;0.60;;;20.10;48.00;;;;;;4137559;28;20426;-57
2023/05/08 03:45:02;;;;;;;2.53;0.60;;;20.10;48.20;;;;;;4140938;28;20182;-57
2023/05/08 03:47:27;;;;;;;3.58;0.60;;;20.10;48.20;;;;;;4120477;28;20089;-59
2023/05/08 03:49:50;;;;;;;1.35;0.52;;;20.10;48.40;;;;;;4138454;28;20034;-56
2023/05/08 03:52:14;;;;;;;2.00;0.70;;;20.10;48.50;;;;;;4142646;28;20072;-59
2023/05/08 03:54:36;;;;;;;1.58;0.60;;;20.10;48.60;;;;;;4137445;28;20061;-58
2023/05/08 03:56:59;;;;;;;1.20;0.50;;;20.00;48.50;;;;;;4146375;28;20105;-59
2023/05/08 03:59:48;;;;;;;0.60;0.45;;;20.00;48.70;;;;;;4144508;28;20053;-58
2023/05/08 04:02:40;;;;;;;2.92;0.60;;;20.00;48.80;;;;;;4145035;28;20049;-55
2023/05/08 04:05:14;;;;;;;1.00;0.52;;;20.00;48.90;;;;;;4144571;28;20449;-55
2023/05/08 04:07:49;;;;;;;1.17;0.60;;;19.90;49.00;;;;;;4139335;28;20075;-55
2023/05/08 04:10:33;;;;;;;0.50;0.40;;;19.90;49.10;;;;;;4144641;28;20038;-59
2023/05/08 04:13:19;;;;;;;1.33;0.67;;;19.90;49.30;;;;;;4136091;28;20055;-56
2023/05/08 04:15:54;;;;;;;3.08;0.70;;;19.90;49.40;;;;;;4143346;28;20030;-56
2023/05/08 04:18:21;;;;;;;0.88;0.50;;;19.80;49.40;;;;;;4142589;28;20100;-58
2023/05/08 04:20:47;;;;;;;1.48;0.50;;;19.80;49.60;;;;;;4139370;28;20076;-50
2023/05/08 04:23:13;;;;;;;1.77;0.45;;;19.80;49.60;;;;;;4144679;28;20040;-57
2023/05/08 04:25:38;;;;;;;1.08;0.40;;;19.80;49.50;;;;;;4139942;28;20120;-59
2023/05/08 04:28:01;;;;;;;2.05;0.60;;;19.80;49.50;;;;;;4127009;28;20034;-58
2023/05/08 04:30:24;;;;;;;1.17;0.50;;;19.80;49.70;;;;;;4135556;28;20030;-58
2023/05/08 04:32:47;;;;;;;0.85;0.60;;;19.70;49.60;;;;;;4135400;28;20491;-59
2023/05/08 04:35:12;;;;;;;1.02;0.50;;;19.70;49.70;;;;;;4138951;28;20030;-53
2023/05/08 04:37:34;;;;;;;0.40;0.40;;;19.70;49.70;;;;;;4142043;28;20033;-58
2023/05/08 04:39:57;;;;;;;0.40;0.40;;;19.70;49.90;;;;;;4136042;28;20084;-59
2023/05/08 04:42:20;;;;;;;0.68;0.47;;;19.70;49.90;;;;;;4139500;28;20054;-59
2023/05/08 04:44:42;;;;;;;1.38;0.60;;;19.70;49.90;;;;;;4136952;28;20034;-58
2023/05/08 04:47:05;;;;;;;0.93;0.43;;;19.70;50.00;;;;;;4144394;28;20141;-59
2023/05/08 04:49:27;;;;;;;2.30;0.60;;;19.60;50.10;;;;;;4141095;28;20551;-61
2023/05/08 04:51:49;;;;;;;0.70;0.70;;;19.60;50.10;;;;;;4138287;28;20466;-57
2023/05/08 04:54:12;;;;;;;0.50;0.30;;;19.60;50.30;;;;;;4139774;28;20096;-60
2023/05/08 04:56:34;;;;;;;1.02;0.40;;;19.60;50.40;;;;;;4137604;28;20045;-58
2023/05/08 04:58:57;;;;;;;1.15;0.47;;;19.60;50.30;;;;;;4139899;28;20494;-56
2023/05/08 05:01:19;;;;;;;1.60;0.50;;;19.60;50.30;;;;;;4139155;28;20157;-58
2023/05/08 05:03:42;;;;;;;2.28;0.63;;;19.60;50.40;;;;;;4140388;28;20044;-59
2023/05/08 05:06:04;;;;;;;0.57;0.32;;;19.60;50.40;;;;;;4140636;28;20052;-57
2023/05/08 05:08:27;;;;;;;2.40;0.35;;;19.60;50.50;;;;;;4137889;28;20912;-58
2023/05/08 05:10:49;;;;;;;0.73;0.40;;;19.60;50.50;;;;;;4136605;28;20034;-57
2023/05/08 05:13:11;;;;;;;0.60;0.38;;;19.50;50.50;;;;;;4142592;28;20377;-57
2023/05/08 05:15:34;;;;;;;0.40;0.30;;;19.50;50.50;;;;;;4135691;28;20073;-59
2023/05/08 05:17:56;;;;;;;1.60;0.30;;;19.50;50.50;;;;;;4141236;28;20627;-60
2023/05/08 05:20:19;;;;;;;0.20;0.20;;;19.50;50.60;;;;;;4141535;28;20037;-59
2023/05/08 05:22:41;;;;;;;0.50;0.35;;;19.50;50.70;;;;;;4141908;28;20030;-53
2023/05/08 05:25:04;;;;;;;0.60;0.40;;;19.50;50.60;;;;;;4140128;28;20049;-51
2023/05/08 05:27:27;;;;;;;1.23;0.40;;;19.40;50.40;;;;;;4139184;28;20050;-55
2023/05/08 05:29:49;;;;;;;0.22;0.22;;;19.40;50.50;;;;;;4140036;28;20038;-56
2023/05/08 05:32:12;;;;;;;0.30;0.30;;;19.40;50.90;;;;;;4135752;28;20045;-59
2023/05/08 05:34:34;;;;;;;0.82;0.40;;;19.40;50.90;;;;;;4141841;28;20045;-59
2023/05/08 05:36:56;;;;;;;1.50;0.28;;;19.40;51.10;;;;;;4134899;28;20149;-59
2023/05/08 05:39:19;;;;;;;1.58;0.40;;;19.40;51.00;;;;;;4144383;28;20153;-58
2023/05/08 05:41:43;;;;;;;0.43;0.35;;;19.40;51.20;;;;;;4142026;28;20049;-61
2023/05/08 05:44:05;;;;;;;0.63;0.30;;;19.40;51.00;;;;;;4139754;28;20034;-59
2023/05/08 05:46:31;;;;;;;1.42;0.40;;;19.40;51.00;;;;;;4143345;28;20514;-59
2023/05/08 05:48:53;;;;;;;0.40;0.40;;;19.40;50.80;;;;;;4139510;28;20038;-61
2023/05/08 05:51:16;;;;;;;0.70;0.30;;;19.40;51.10;;;;;;4136267;28;20037;-59
2023/05/08 05:53:38;;;;;;;4.43;0.40;;;19.40;51.00;;;;;;4142024;28;20057;-58
2023/05/08 05:56:01;;;;;;;0.43;0.38;;;19.50;51.10;;;;;;4141587;28;20482;-59
2023/05/08 05:58:23;;;;;;;0.80;0.25;;;19.50;51.10;;;;;;4138894;28;20046;-59
2023/05/08 06:00:46;;;;;;;1.05;0.45;;;19.40;51.00;;;;;;4136282;28;20073;-58
2023/05/08 06:03:12;;;;;;;1.10;0.40;;;19.40;51.10;;;;;;4120743;28;20034;-65
2023/05/08 06:05:35;;;;;;;2.25;0.40;;;19.40;51.30;;;;;;4140197;28;20422;-58
2023/05/08 06:07:58;;;;;;;0.90;0.40;;;19.40;50.90;;;;;;4138440;28;20049;-59
2023/05/08 06:10:20;;;;;;;2.97;0.85;;;19.40;50.40;;;;;;4141266;28;20041;-61
2023/05/08 06:12:42;;;;;;;1.05;0.63;;;19.40;50.00;;;;;;4119714;28;20038;-60
2023/05/08 06:15:06;;;;;;;2.65;0.57;;;19.40;50.10;;;;;;4141499;28;20034;-59
2023/05/08 06:17:29;;;;;;;2.85;0.60;;;19.40;50.00;;;;;;4140995;28;20050;-60
2023/05/08 06:19:55;;;;;;;10.13;0.82;;;19.40;50.10;;;;;;4136157;28;20030;-60
2023/05/08 06:22:17;;;;;;;1.20;0.40;;;19.40;50.10;;;;;;4143496;28;20041;-64
2023/05/08 06:24:40;;;;;;;1.83;0.60;;;19.40;50.10;;;;;;4143003;28;20042;-60
2023/05/08 06:27:02;;;;;;;5.57;0.73;;;19.40;50.30;;;;;;4138951;28;20045;-60
2023/05/08 06:29:25;;;;;;;2.30;0.40;;;19.30;50.10;;;;;;4142201;28;20038;-60
2023/05/08 06:31:47;;;;;;;0.63;0.47;;;19.30;50.10;;;;;;4132986;28;20038;-60
2023/05/08 06:34:10;;;;;;;2.03;0.40;;;19.30;50.20;;;;;;4142213;28;20038;-60
2023/05/08 06:36:32;;;;;;;0.28;0.28;;;19.30;50.10;;;;;;4136054;28;20393;-60
2023/05/08 06:38:54;;;;;;;0.70;0.30;;;19.30;50.10;;;;;;4142460;28;20092;-59
2023/05/08 06:41:17;;;;;;;2.40;0.52;;;19.30;50.40;;;;;;4138670;28;20057;-60
2023/05/08 06:43:39;;;;;;;0.43;0.43;;;19.50;50.10;;;;;;4143298;28;20096;-61
2023/05/08 06:46:02;;;;;;;0.73;0.50;;;19.90;49.20;;;;;;4125123;28;20500;-57
2023/05/08 06:48:27;;;;;;;1.73;0.50;;;20.50;47.80;;;;;;4129316;28;20038;-56
2023/05/08 06:50:51;;;;;;;1.80;0.45;;;21.20;46.30;;;;;;4132221;28;20045;-59
2023/05/08 06:53:13;;;;;;;0.80;0.38;;;21.40;45.60;;;;;;4136508;28;20474;-57
2023/05/08 06:55:36;;;;;;;1.00;0.30;;;21.00;46.20;;;;;;4141890;28;20049;-59
2023/05/08 06:57:58;;;;;;;0.30;0.30;;;20.50;47.10;;;;;;4135620;28;20030;-60
2023/05/08 07:00:21;;;;;;;2.50;0.70;;;20.20;47.90;;;;;;4138826;28;20038;-59
2023/05/08 07:02:43;;;;;;;2.40;0.40;;;20.00;48.60;;;;;;4139492;28;20045;-63
2023/05/08 07:05:06;;;;;;;0.77;0.40;;;19.80;49.00;;;;;;4139686;28;20049;-59
2023/05/08 07:07:28;;;;;;;0.90;0.50;;;19.60;49.30;;;;;;4141625;28;20494;-59
2023/05/08 07:09:51;;;;;;;0.70;0.40;;;19.50;49.70;;;;;;4139608;28;20042;-60
2023/05/08 07:12:15;;;;;;;0.63;0.20;;;19.40;49.90;;;;;;4139069;28;20038;-59
2023/05/08 07:14:37;;;;;;;2.30;0.43;;;19.30;50.00;;;;;;4142206;28;20037;-60
2023/05/08 07:17:06;;;;;;;0.98;0.40;;;19.30;50.20;;;;;;4123647;28;20046;-58
2023/05/08 07:19:28;;;;;;;1.30;0.50;;;19.20;50.40;;;;;;4138589;28;20042;-60
2023/05/08 07:21:51;;;;;;;1.20;0.70;;;19.20;50.10;;;;;;4141163;28;20053;-59
2023/05/08 07:24:13;;;;;;;1.00;0.65;;;19.20;50.00;;;;;;4138298;28;20120;-60
2023/05/08 07:26:36;;;;;;;0.52;0.40;;;19.10;50.00;;;;;;4140276;28;20054;-56
2023/05/08 07:28:58;;;;;;;0.85;0.63;;;19.10;50.00;;;;;;4141742;28;20037;-59
2023/05/08 07:31:21;;;;;;;1.08;0.80;;;19.10;50.00;;;;;;4142451;28;20053;-58
2023/05/08 07:33:45;;;;;;;2.67;0.70;;;19.00;49.90;;;;;;4142303;28;20045;-60
2023/05/08 07:36:07;;;;;;;;;;;19.00;49.90;;;;;;4140008;28;20293;-59
2023/05/08 07:38:29;;;;;;;0.47;0.47;;;18.90;50.30;;;;;;4142450;28;19910;-59
2023/05/08 07:40:55;;;;;;;2.45;0.73;;;19.00;50.40;;;;;;4139248;28;20053;-60
2023/05/08 07:43:18;;;;;;;1.17;0.90;;;18.90;50.60;;;;;;4143604;28;20041;-58
2023/05/08 07:45:40;;;;;;;1.15;0.73;;;18.90;50.70;;;;;;4126770;28;20034;-66
2023/05/08 07:48:02;;;;;;;1.77;0.80;;;18.90;50.80;;;;;;4126936;28;20031;-62
2023/05/08 07:50:26;;;;;;;1.40;0.75;;;18.90;51.00;;;;;;4143131;28;20474;-59
2023/05/08 07:52:48;;;;;;;2.72;0.88;;;18.90;51.20;;;;;;4142678;28;20069;-59
2023/05/08 07:55:11;;;;;;;2.92;0.90;;;18.90;51.40;;;;;;4145944;28;20121;-57
2023/05/08 07:57:41;;;;;;;1.15;0.70;;;18.90;51.30;;;;;;4145626;28;20049;-66
2023/05/08 08:00:05;;;;;;;1.77;1.15;;;18.90;51.30;;;;;;4144728;28;20451;-62
2023/05/08 08:02:27;;;;;;;1.60;0.93;;;18.80;51.10;;;;;;4143466;28;20518;-61
2023/05/08 08:04:50;;;;;;;1.25;0.80;;;18.90;51.20;;;;;;4146442;28;20421;-59
2023/05/08 08:07:12;;;;;;;1.63;0.98;;;18.80;51.20;;;;;;4142566;28;20041;-63
2023/05/08 08:09:35;;;;;;;4.55;0.60;;;18.90;51.30;;;;;;4146739;28;20042;-65
2023/05/08 08:11:57;;;;;;;1.95;0.60;;;18.80;51.50;;;;;;4146140;28;20572;-60
2023/05/08 08:14:20;;;;;;;0.80;0.52;;;18.80;51.60;;;;;;4134550;28;20567;-61
2023/05/08 08:16:42;;;;;;;1.25;0.60;;;18.80;51.60;;;;;;4144057;28;20038;-59
2023/05/08 08:19:05;;;;;;;0.68;0.60;;;18.80;51.40;;;;;;4142677;28;20220;-61
2023/05/08 08:21:28;;;;;;;9.68;1.52;;;18.80;51.50;;;;;;4133224;28;20124;-62
2023/05/08 08:23:51;;;;;;;4.18;0.73;;;18.80;51.60;;;;;;4142612;28;20045;-67
2023/05/08 08:26:13;;;;;;;0.82;0.60;;;18.80;51.60;;;;;;4126548;28;20069;-61
2023/05/08 08:28:36;;;;;;;1.23;0.73;;;18.80;51.50;;;;;;4144275;28;20121;-60
2023/05/08 08:30:58;;;;;;;0.85;0.68;;;18.80;51.10;;;;;;4144784;28;20053;-58
2023/05/08 08:33:21;;;;;;;1.23;0.50;;;18.80;51.00;;;;;;4141218;28;20029;-59
2023/05/08 08:35:43;;;;;;;1.15;0.60;;;18.80;51.10;;;;;;4126492;28;20491;-61
2023/05/08 08:38:05;;;;;;;2.38;0.70;;;18.80;51.10;;;;;;4121038;28;20034;-60
2023/05/08 08:40:28;;;;;;;0.63;0.63;;;18.70;51.10;;;;;;4138452;28;20191;-58
2023/05/08 08:42:50;;;;;;;0.57;0.50;;;18.80;51.20;;;;;;4142678;28;20049;-60
2023/05/08 08:45:13;;;;;;;0.80;0.50;;;18.80;51.10;;;;;;4136785;28;20593;-59
2023/05/08 08:47:36;;;;;;;1.75;0.60;;;18.80;51.10;;;;;;4141625;28;20490;-61
2023/05/08 08:50:03;;;;;;;0.98;0.60;;;18.80;51.10;;;;;;4129189;28;20030;-62
2023/05/08 08:53:07;;;;;;;2.15;0.82;;;18.80;51.10;;;;;;4142584;28;20462;-59
2023/05/08 08:55:31;;;;;;;1.90;1.20;;;18.80;50.60;;;;;;4115520;28;20034;-60
2023/05/08 08:57:53;;;;;;;;;;;18.70;49.90;;;;;;4140404;28;20276;-70
2023/05/08 09:00:17;;;;;;;2.63;1.30;;;18.70;49.90;;;;;;4142492;28;20427;-70
2023/05/08 09:02:39;;;;;;;;;;;18.70;49.90;;;;;;4141694;28;20406;-67
2023/05/08 09:05:03;;;;;;;1.98;1.00;;;18.70;50.10;;;;;;4138887;28;19913;-69
2023/05/08 09:07:26;;;;;;;1.00;0.77;;;18.60;50.20;;;;;;4138523;28;20103;-69
2023/05/08 09:09:49;;;;;;;3.38;0.88;;;18.60;50.30;;;;;;4138772;28;20474;-55
2023/05/08 09:12:13;;;;;;;1.88;1.02;;;18.70;50.60;;;;;;4127352;28;20089;-58
2023/05/08 09:14:35;;;;;;;1.45;0.80;;;18.60;50.40;;;;;;4141008;28;20504;-59
2023/05/08 09:16:58;;;;;;;2.67;1.10;;;18.60;49.80;;;;;;4128852;28;20121;-63
2023/05/08 09:19:22;;;;;;;1.25;0.90;;;18.60;50.20;;;;;;4143351;28;20049;-61
2023/05/08 09:21:45;;;;;;;2.17;0.73;;;18.60;49.60;;;;;;4143874;28;20046;-59
2023/05/08 09:24:07;;;;;;;2.00;0.90;;;18.60;49.90;;;;;;4139620;28;20482;-59
2023/05/08 09:26:32;;;;;;;1.27;0.90;;;18.60;49.80;;;;;;4143707;28;20069;-60
2023/05/08 09:29:11;;;;;;;2.45;0.90;;;18.50;49.90;;;;;;4139065;28;20061;-60
2023/05/08 09:31:42;;;;;;;2.17;1.25;;;18.50;49.60;;;;;;4143815;28;20045;-60
2023/05/08 09:34:08;;;;;;;2.38;1.10;;;18.40;49.90;;;;;;4134994;28;20049;-60
2023/05/08 09:36:33;;;;;;;2.53;1.05;;;18.40;49.50;;;;;;4141114;28;20060;-64
2023/05/08 09:38:55;;;;;;;1.48;1.00;;;18.40;49.80;;;;;;4136882;28;20053;-66
2023/05/08 09:41:18;;;;;;;3.33;1.00;;;18.40;49.50;;;;;;4137407;28;20062;-65
2023/05/08 09:43:42;;;;;;;1.60;0.77;;;18.30;49.50;;;;;;4137253;28;20113;-65
2023/05/08 09:46:22;;;;;;;1.35;0.65;;;18.30;49.70;;;;;;4142152;28;20049;-65
2023/05/08 09:48:44;;;;;;;1.48;0.90;;;18.30;49.80;;;;;;4123038;28;20046;-65
2023/05/08 09:51:07;;;;;;;1.30;0.88;;;18.30;49.90;;;;;;4142980;28;20544;-65
2023/05/08 09:53:33;;;;;;;1.15;0.65;;;18.30;49.80;;;;;;4143415;28;20108;-66
2023/05/08 09:55:56;;;;;;;1.05;0.68;;;18.30;49.90;;;;;;4142895;28;20038;-64
2023/05/08 09:58:18;;;;;;;1.98;1.20;;;18.40;50.40;;;;;;4139707;28;20498;-66
2023/05/08 10:00:40;;;;;;;1.45;0.75;;;18.40;50.70;;;;;;4138334;28;20561;-64
2023/05/08 10:03:04;;;;;;;0.73;0.68;;;18.40;50.80;;;;;;4141445;28;20394;-65
2023/05/08 10:05:33;;;;;;;0.85;0.77;;;18.40;50.90;;;;;;4121735;28;20752;-63
2023/05/08 10:07:56;;;;;;;1.30;0.70;;;18.40;51.00;;;;;;4118450;28;20050;-65
2023/05/08 10:10:26;;;;;;;1.17;0.60;;;18.40;51.00;;;;;;4129590;28;20054;-63
2023/05/08 10:12:50;;;;;;;1.02;0.63;;;18.50;51.10;;;;;;4129628;28;20044;-56
2023/05/08 10:15:12;;;;;;;1.27;0.80;;;18.50;50.90;;;;;;4132310;28;20045;-63
2023/05/08 10:17:43;;;;;;;2.15;0.80;;;18.50;50.50;;;;;;4132399;28;20558;-67
2023/05/08 10:20:07;;;;;;;2.17;1.10;;;18.50;50.30;;;;;;4133790;28;20068;-60
2023/05/08 10:22:32;;;;;;;;;;;18.50;50.20;;;;;;4137177;28;20406;-59
2023/05/08 10:24:57;;;;;;;;;;;18.50;50.20;;;;;;4134535;28;19913;-59
2023/05/08 10:27:41;;;;;;;1.65;1.08;;;18.40;50.10;;;;;;4130076;28;19921;-59
2023/05/08 10:30:04;;;;;;;1.47;1.30;;;18.40;49.90;;;;;;4133994;28;20624;-61
2023/05/08 10:32:30;;;;;;;1.75;0.90;;;18.30;49.80;;;;;;4133421;28;20291;-50
2023/05/08 10:34:59;;;;;;;2.08;1.08;;;18.30;50.00;;;;;;4113905;28;20506;-65
2023/05/08 10:37:22;;;;;;;1.85;0.90;;;18.20;50.00;;;;;;4119402;28;20042;-60
2023/05/08 10:39:45;;;;;;;2.92;0.98;;;18.20;50.20;;;;;;4133031;28;20061;-60
2023/05/08 10:42:08;;;;;;;2.15;0.85;;;18.20;50.40;;;;;;4129159;28;20298;-60
2023/05/08 10:44:31;;;;;;;2.22;1.02;;;18.20;50.60;;;;;;4132425;28;20045;-61
2023/05/08 10:47:17;;;;;;;1.67;0.80;;;18.20;50.80;;;;;;4133757;28;20053;-60
2023/05/08 10:49:39;;;;;;;2.85;0.82;;;18.20;51.00;;;;;;4136577;28;20026;-62
2023/05/08 10:52:09;;;;;;;2.15;0.90;;;18.30;51.20;;;;;;4138263;28;20411;-69
2023/05/08 10:54:54;;;;;;;1.02;0.80;;;18.30;51.30;;;;;;4140860;28;20506;-62
2023/05/08 10:57:16;;;;;;;1.15;0.80;;;18.30;51.40;;;;;;4138580;28;20449;-59
2023/05/08 10:59:44;;;;;;;2.22;1.20;;;18.30;50.70;;;;;;4141170;28;20034;-58
2023/05/08 11:02:07;;;;;;;3.05;1.75;;;18.30;49.70;;;;;;4139035;28;20034;-61
2023/05/08 11:04:29;;;;;;;3.20;1.20;;;18.30;49.60;;;;;;4134307;28;20037;-61
2023/05/08 11:06:52;;;;;;;2.28;1.15;;;18.20;49.70;;;;;;4141961;28;20133;-60
2023/05/08 11:09:26;;;;;;;2.30;1.17;;;18.30;50.10;;;;;;4141721;28;20049;-61
2023/05/08 11:12:08;;;;;;;4.17;1.20;;;18.20;50.20;;;;;;4142186;28;20180;-62
2023/05/08 11:14:32;;;;;;;21.35;2.67;;;18.30;50.50;;;;;;4123797;28;20276;-54
2023/05/08 11:17:04;;;;;;;14.23;2.40;;;18.20;50.40;;;;;;4126547;28;20038;-54
2023/05/08 11:19:27;;;;;;;5.45;1.52;;;18.20;50.60;;;;;;4140046;28;20049;-60
2023/05/08 11:22:11;;;;;;;6.45;1.67;;;18.20;50.40;;;;;;4140936;28;20068;-64
2023/05/08 11:24:37;;;;;;;6.85;1.10;;;18.20;50.20;;;;;;4142975;28;20037;-61
2023/05/08 11:27:00;;;;;;;4.60;0.90;;;18.20;50.60;;;;;;4144473;28;20050;-68
2023/05/08 11:29:22;;;;;;;3.15;0.70;;;18.20;50.90;;;;;;4144755;28;20045;-60
2023/05/08 11:31:52;;;;;;;3.72;0.75;;;18.20;51.40;;;;;;4144858;28;20050;-58
2023/05/08 11:34:35;;;;;;;1.13;0.63;;;18.20;51.50;;;;;;4143236;28;20030;-61
2023/05/08 11:37:02;;;;;;;4.00;0.73;;;18.20;51.70;;;;;;4144637;28;20038;-60
2023/05/08 11:39:24;;;;;;;3.08;0.60;;;18.20;51.90;;;;;;4145399;28;20052;-62
2023/05/08 11:41:46;;;;;;;1.83;0.45;;;18.20;51.90;;;;;;4141516;28;20052;-60
2023/05/08 11:44:20;;;;;;;1.80;0.50;;;18.20;52.00;;;;;;4141070;28;20482;-60
2023/05/08 11:46:56;;;;;;;2.00;0.38;;;18.20;52.00;;;;;;4144146;28;20053;-59
2023/05/08 11:49:24;;;;;;;8.95;1.58;;;18.20;52.10;;;;;;4143727;28;20103;-58
2023/05/08 11:51:49;;;;;;;1.75;0.80;;;18.20;52.80;;;;;;4141820;28;20069;-58
2023/05/08 11:54:18;;;;;;;20.95;3.22;;;18.30;52.50;;;;;;4140465;28;20034;-62
2023/05/08 11:56:41;;;;;;;24.52;2.58;;;18.30;51.50;;;;;;4145294;28;20403;-59
2023/05/08 11:59:10;;;;;;;12.70;1.75;;;18.20;51.60;;;;;;4133416;28;20145;-59
2023/05/08 12:01:33;;;;;;;3.88;1.00;;;18.20;51.20;;;;;;4144223;28;20045;-59
2023/05/08 12:04:06;;;;;;;2.13;0.75;;;18.20;50.60;;;;;;4143408;28;20410;-59
2023/05/08 12:06:30;;;;;;;6.07;0.80;;;18.20;50.40;;;;;;4145580;28;20490;-59
2023/05/08 12:08:53;;;;;;;2.25;1.10;;;18.10;50.50;;;;;;4144711;28;20033;-59
2023/05/08 12:11:23;;;;;;;2.08;0.90;;;18.10;49.80;;;;;;4145093;28;20132;-59
2023/05/08 12:13:50;;;;;;;2.22;0.80;;;18.00;49.70;;;;;;4130609;28;20093;-59
2023/05/08 12:16:13;;;;;;;1.65;0.82;;;18.00;49.90;;;;;;4144260;28;20910;-59
2023/05/08 12:18:36;;;;;;;1.75;0.85;;;17.90;50.00;;;;;;4144527;28;20046;-58
2023/05/08 12:21:00;;;;;;;1.45;0.75;;;17.90;50.10;;;;;;4142770;28;20034;-60
2023/05/08 12:23:24;;;;;;;1.85;0.93;;;17.90;50.60;;;;;;4138489;28;20033;-58
2023/05/08 12:25:47;;;;;;;1.10;0.80;;;17.90;50.90;;;;;;4140610;28;20038;-58
2023/05/08 12:28:10;;;;;;;4.47;0.93;;;17.90;51.10;;;;;;4142162;28;20076;-58
2023/05/08 12:30:32;;;;;;;5.15;1.00;;;17.90;51.40;;;;;;4138501;28;20497;-59
2023/05/08 12:32:55;;;;;;;3.33;0.85;;;17.80;51.50;;;;;;4127583;28;20058;-58
2023/05/08 12:35:18;;;;;;;3.70;0.88;;;17.90;52.20;;;;;;4135267;28;20121;-59
2023/05/08 12:37:41;;;;;;;2.88;0.70;;;17.80;51.80;;;;;;4143730;28;20486;-59
2023/05/08 12:40:04;;;;;;;1.80;0.70;;;17.80;52.00;;;;;;4137591;28;20042;-58